Carnes, Iowa
Current Conditions -  °F | °C
As of 10:55 PM on Sunday 21 Dec 2014 (Local Time) from KORC Reporting Station
Haze Haze  
Wind Chill:   Ceiling: 300
Heat Index:   Visibility: 2.5mi
Dew Point:   Wind: 12mph
Humidity: 93%   Direction: 170°S
Pressure: 29.59"   Gusts: NA
Location:  42.9504°N, 96.034°W
Report Text: KORC 220455Z AUTO 17010KT 2 1/2SM BR OVC003 04/03 A2959 RMK AO2
Loading
Personal Weather Stations






























Interactive Weather Map New forecast layout! Learn more

10-Day Weather Forecast

Advertisements
Track Severe Weather on mobile